createdAt,value
2023-10-28T00:03:25.985Z,97837.66
2023-10-28T00:08:28.010Z,97892.31
2023-10-28T00:13:31.706Z,97882.28
2023-10-28T00:18:34.797Z,97884.94
2023-10-28T00:23:37.354Z,97879.84
2023-10-28T00:28:43.895Z,97842.75
2023-10-28T00:33:45.981Z,97870.66
2023-10-28T00:38:48.029Z,97869.53
2023-10-28T00:43:50.358Z,97840.28
2023-10-28T00:48:54.475Z,97826.84
2023-10-28T00:53:57.120Z,97828.28
2023-10-28T00:58:59.824Z,97836.00
2023-10-28T01:04:01.610Z,97853.25
2023-10-28T01:09:03.556Z,97852.28
2023-10-28T01:14:05.636Z,97802.06
2023-10-28T01:19:07.734Z,97828.63
2023-10-28T01:24:14.334Z,97816.50
2023-10-28T01:29:16.430Z,97817.47
2023-10-28T01:34:23.130Z,97830.75
2023-10-28T01:39:25.226Z,97820.28
2023-10-28T01:44:27.061Z,97803.53
2023-10-28T01:49:29.162Z,97810.41
2023-10-28T01:54:34.856Z,97822.69
2023-10-28T01:59:38.626Z,97790.03
2023-10-28T02:04:42.987Z,97811.50
2023-10-28T02:09:45.167Z,97811.34
2023-10-28T02:14:47.489Z,97795.75
2023-10-28T02:19:51.502Z,97757.06
2023-10-28T02:24:53.393Z,97771.34
2023-10-28T02:29:55.496Z,97794.63
2023-10-28T02:34:57.411Z,97781.84
2023-10-28T02:39:59.311Z,97742.31
2023-10-28T02:45:01.193Z,97690.69
2023-10-28T02:50:03.274Z,97755.41
2023-10-28T02:55:06.980Z,97741.50
2023-10-28T03:00:12.583Z,97755.59
2023-10-28T03:05:16.842Z,97764.78
2023-10-28T03:10:18.712Z,97726.72
2023-10-28T03:15:23.243Z,97764.63
2023-10-28T03:20:25.252Z,97756.25
2023-10-28T03:25:29.946Z,97738.88
2023-10-28T03:30:32.215Z,97755.63
2023-10-28T03:35:34.171Z,97724.28
2023-10-28T03:40:38.221Z,97739.22
2023-10-28T03:45:40.121Z,97726.41
2023-10-28T03:50:42.298Z,97738.69
2023-10-28T03:55:44.776Z,97702.78
2023-10-28T04:00:47.463Z,97695.06
2023-10-28T04:05:52.546Z,97714.41
2023-10-28T04:10:56.732Z,97699.00
2023-10-28T04:15:58.762Z,97721.13
2023-10-28T04:21:00.726Z,97672.13
2023-10-28T04:26:05.389Z,97695.69
2023-10-28T04:31:07.796Z,97703.44
2023-10-28T04:36:11.115Z,97691.59
2023-10-28T04:41:13.016Z,97692.75
2023-10-28T04:46:17.217Z,97694.41
2023-10-28T04:51:19.007Z,97686.19
2023-10-28T04:56:20.759Z,97718.09
2023-10-28T05:01:22.752Z,97715.69
2023-10-28T05:06:25.046Z,97710.94
2023-10-28T05:11:26.999Z,97714.22
2023-10-28T05:16:31.195Z,97708.97
2023-10-28T05:21:35.543Z,97709.13
2023-10-28T05:26:39.972Z,97667.69
2023-10-28T05:31:46.825Z,97681.44
2023-10-28T05:36:48.783Z,97712.25
2023-10-28T05:41:50.589Z,97695.06
2023-10-28T05:46:52.631Z,97680.69
2023-10-28T05:51:57.050Z,97712.13
2023-10-28T05:56:59.494Z,97685.22
2023-10-28T06:02:03.466Z,97709.31
2023-10-28T06:07:05.503Z,97709.31
2023-10-28T06:12:10.012Z,97683.44
2023-10-28T06:17:14.727Z,97714.50
2023-10-28T06:22:16.677Z,97715.19
2023-10-28T06:27:18.513Z,97701.13
2023-10-28T06:32:20.431Z,97723.44
2023-10-28T06:37:22.722Z,97689.19
2023-10-28T06:42:25.586Z,97715.59
2023-10-28T06:47:27.450Z,97698.22
2023-10-28T06:52:29.424Z,97733.47
2023-10-28T06:57:32.097Z,97742.66
2023-10-28T07:02:34.803Z,97734.09
2023-10-28T07:07:40.098Z,97736.88
2023-10-28T07:12:43.176Z,97733.66
2023-10-28T07:17:45.151Z,97753.81
2023-10-28T07:22:50.722Z,97733.81
2023-10-28T07:27:52.708Z,97716.59
2023-10-28T07:32:54.732Z,97705.75
2023-10-28T07:37:56.818Z,97711.50
2023-10-28T07:42:58.712Z,97704.31
2023-10-28T07:48:02.942Z,97718.56
2023-10-28T07:53:08.361Z,97739.72
2023-10-28T07:58:13.502Z,97737.75
2023-10-28T08:03:18.800Z,97730.69
2023-10-28T08:08:23.155Z,97703.13
2023-10-28T08:13:25.214Z,97711.81
2023-10-28T08:18:26.962Z,97703.56
2023-10-28T08:23:31.863Z,97703.91
2023-10-28T08:28:34.150Z,97709.00
2023-10-28T08:33:37.205Z,97739.63
2023-10-28T08:38:39.621Z,97727.50
2023-10-28T08:43:43.069Z,97741.69
2023-10-28T08:48:52.741Z,97753.03
2023-10-28T08:53:58.646Z,97760.19
2023-10-28T08:59:00.515Z,97757.72
2023-10-28T09:04:06.062Z,97722.19
2023-10-28T09:09:13.915Z,97747.25
2023-10-28T09:14:16.005Z,97776.00
2023-10-28T09:19:23.259Z,97750.22
2023-10-28T09:24:24.983Z,97780.22
2023-10-28T09:29:31.876Z,97761.84
2023-10-28T09:34:41.342Z,97752.78
2023-10-28T09:39:49.015Z,97760.19
2023-10-28T09:44:51.218Z,97738.25
2023-10-28T09:50:01.070Z,97758.66
2023-10-28T09:55:08.896Z,97762.16
2023-10-28T10:00:24.971Z,97790.72
2023-10-28T10:05:34.509Z,97778.28
2023-10-28T10:10:46.889Z,97754.38
2023-10-28T10:16:13.151Z,97771.31
2023-10-28T10:21:20.178Z,97747.47
2023-10-28T10:26:31.882Z,97761.09
2023-10-28T10:31:36.684Z,97758.47
2023-10-28T10:36:46.993Z,97760.53
2023-10-28T10:42:00.513Z,97759.56
2023-10-28T10:47:06.521Z,97746.09
2023-10-28T10:52:09.936Z,97780.56
2023-10-28T10:57:11.968Z,97766.56
2023-10-28T11:02:14.040Z,97770.44
2023-10-28T11:07:18.194Z,97786.84
2023-10-28T11:12:24.591Z,97755.53
2023-10-28T11:17:27.133Z,97746.91
2023-10-28T11:22:29.093Z,97730.94
2023-10-28T11:27:35.260Z,97739.19
2023-10-28T11:32:43.759Z,97765.81
2023-10-28T11:37:45.656Z,97747.25
2023-10-28T11:42:47.716Z,97742.78
2023-10-28T11:47:49.602Z,97737.69
2023-10-28T11:52:51.412Z,97749.06
2023-10-28T11:57:53.293Z,97776.53
2023-10-28T12:02:55.285Z,97744.41
2023-10-28T12:07:59.552Z,97721.81
2023-10-28T12:13:02.737Z,97722.97
2023-10-28T12:18:10.842Z,97713.50
2023-10-28T12:23:14.957Z,97723.25
2023-10-28T12:28:17.078Z,97742.22
2023-10-28T12:33:19.108Z,97748.28
2023-10-28T12:38:20.997Z,97751.53
2023-10-28T12:43:22.973Z,97755.88
2023-10-28T12:48:27.659Z,97733.34
2023-10-28T12:53:32.600Z,97716.81
2023-10-28T12:58:35.011Z,97760.63
2023-10-28T13:03:37.292Z,97735.59
2023-10-28T13:08:39.205Z,97714.28
2023-10-28T13:13:41.317Z,97734.22
2023-10-28T13:18:43.611Z,97727.84
2023-10-28T13:23:45.713Z,97672.06
2023-10-28T13:28:51.261Z,97718.34
2023-10-28T13:33:53.243Z,97697.22
2023-10-28T13:38:55.315Z,97726.94
2023-10-28T13:43:57.219Z,97724.19
2023-10-28T13:48:58.966Z,97689.09
2023-10-28T13:54:00.890Z,97704.94
2023-10-28T13:59:06.128Z,97684.78
2023-10-28T14:04:09.317Z,97700.81
2023-10-28T14:09:11.458Z,97698.78
2023-10-28T14:14:14.933Z,97696.88
2023-10-28T14:19:16.740Z,97703.03
2023-10-28T14:24:20.890Z,97656.31
2023-10-28T14:29:25.197Z,97668.25
2023-10-28T14:34:27.789Z,97687.00
2023-10-28T14:39:30.213Z,97690.44
2023-10-28T14:44:35.996Z,97677.97
2023-10-28T14:49:37.771Z,97673.88
2023-10-28T14:54:39.544Z,97637.50
2023-10-28T14:59:48.430Z,97678.72
2023-10-28T15:04:53.200Z,97640.66
2023-10-28T15:09:55.021Z,97678.38
2023-10-28T15:14:57.000Z,97664.00
2023-10-28T15:20:00.446Z,97672.56
2023-10-28T15:25:02.690Z,97669.53
2023-10-28T15:30:12.522Z,97667.09
2023-10-28T15:35:14.432Z,97681.22
2023-10-28T15:40:20.610Z,97656.78
2023-10-28T15:45:24.648Z,97619.19
2023-10-28T15:50:26.742Z,97657.03
2023-10-28T15:55:29.294Z,97676.34
2023-10-28T16:00:33.780Z,97644.97
2023-10-28T16:05:37.724Z,97645.09
2023-10-28T16:10:39.585Z,97652.81
2023-10-28T16:15:44.168Z,97655.03
2023-10-28T16:20:46.844Z,97657.97
2023-10-28T16:25:48.663Z,97659.22
2023-10-28T16:30:51.058Z,97660.84
2023-10-28T16:35:53.903Z,97630.03
2023-10-28T16:40:59.307Z,97660.78
2023-10-28T16:46:02.110Z,97626.53
2023-10-28T16:51:13.254Z,97659.72
2023-10-28T16:56:17.802Z,97661.34
2023-10-28T17:01:19.754Z,97645.75
2023-10-28T17:06:21.646Z,97648.97
2023-10-28T17:11:29.011Z,97657.97
2023-10-28T17:16:32.064Z,97679.56
2023-10-28T17:21:34.173Z,97629.97
2023-10-28T17:26:36.555Z,97689.09
2023-10-28T17:31:39.003Z,97680.31
2023-10-28T17:36:41.103Z,97697.78
2023-10-28T17:41:46.308Z,97701.63
2023-10-28T17:46:49.726Z,97703.13
2023-10-28T17:51:54.053Z,97703.00
2023-10-28T17:57:02.552Z,97701.06
2023-10-28T18:02:04.662Z,97670.19
2023-10-28T18:07:09.327Z,97681.44
2023-10-28T18:17:39.078Z,97549.44
2023-10-28T18:22:41.198Z,97530.22
2023-10-28T18:27:43.346Z,97478.28
2023-10-28T18:32:47.692Z,97507.56
2023-10-28T18:37:52.029Z,97568.19
2023-10-28T18:42:54.644Z,97383.59
2023-10-28T18:47:58.402Z,97462.97
2023-10-28T18:53:02.977Z,97436.19
2023-10-28T18:58:06.459Z,97345.69
2023-10-28T19:03:13.212Z,97471.78
2023-10-28T19:08:15.866Z,97719.56
2023-10-28T19:13:18.164Z,97441.97
2023-10-28T19:18:20.621Z,97588.38
2023-10-28T19:23:23.247Z,97741.66
2023-10-28T19:28:25.689Z,97297.75
2023-10-28T19:33:30.200Z,97502.22
2023-10-28T19:38:36.887Z,97510.13
2023-10-28T19:43:39.459Z,97692.22
2023-10-28T19:48:43.209Z,97664.53
2023-10-28T19:53:46.679Z,97689.56
2023-10-28T19:58:48.510Z,97722.97
2023-10-28T20:03:51.657Z,97715.25
2023-10-28T20:08:53.827Z,97714.00
2023-10-28T20:13:57.732Z,97678.59
2023-10-28T20:18:59.840Z,97706.91
2023-10-28T20:24:01.978Z,97689.66
2023-10-28T20:29:04.613Z,97657.41
2023-10-28T20:34:09.251Z,97673.31
2023-10-28T20:39:11.139Z,97690.38
2023-10-28T20:44:13.071Z,97682.84
2023-10-28T20:49:14.934Z,97708.03
2023-10-28T20:54:16.943Z,97692.66
2023-10-28T20:59:21.115Z,97711.91
2023-10-28T21:04:23.082Z,97706.38
2023-10-28T21:09:25.261Z,97663.88
2023-10-28T21:27:08.811Z,97631.59
2023-10-28T21:32:11.030Z,97519.09
2023-10-28T21:37:14.469Z,97484.50
2023-10-28T21:42:19.114Z,97443.91
2023-10-28T21:52:41.931Z,97375.88
2023-10-28T21:57:44.397Z,97685.66
2023-10-28T22:02:49.259Z,97484.56
2023-10-28T22:07:52.275Z,97466.88
2023-10-28T22:12:54.841Z,97613.09
2023-10-28T22:17:57.221Z,97311.63
2023-10-28T22:22:59.836Z,97595.44
2023-10-28T22:28:14.083Z,97678.09
2023-10-28T22:33:17.797Z,97454.88
2023-10-28T22:38:20.610Z,97427.31
2023-10-28T22:43:23.682Z,97477.03
2023-10-28T22:48:26.037Z,97478.28
2023-10-28T22:53:29.114Z,97463.03
2023-10-28T22:58:31.477Z,97437.16
2023-10-28T23:03:34.383Z,97698.19
2023-10-28T23:08:37.043Z,97441.38
2023-10-28T23:13:39.536Z,97520.88
2023-10-28T23:18:41.820Z,97357.88
2023-10-28T23:23:44.560Z,97313.72
2023-10-28T23:28:47.666Z,97424.31
2023-10-28T23:33:51.060Z,97429.16
2023-10-28T23:38:53.560Z,97400.13
2023-10-28T23:43:56.566Z,97443.28
2023-10-28T23:48:59.170Z,97502.06
2023-10-28T23:54:01.470Z,97339.00
2023-10-28T23:59:04.486Z,97367.97
